sensor_id;sensor_type;location;lat;lon;timestamp;pressure;altitude;pressure_sealevel;temperature;humidity
36828;BME280;22766;48.042;11.192;2023-04-27T00:01:15;95033.16;;;4.86;100.00
36828;BME280;22766;48.042;11.192;2023-04-27T00:03:42;95030.84;;;4.94;100.00
36828;BME280;22766;48.042;11.192;2023-04-27T00:06:08;95033.97;;;4.86;100.00
36828;BME280;22766;48.042;11.192;2023-04-27T00:08:35;95032.34;;;4.85;100.00
36828;BME280;22766;48.042;11.192;2023-04-27T00:11:02;95026.63;;;4.82;100.00
36828;BME280;22766;48.042;11.192;2023-04-27T00:13:29;95024.22;;;4.80;100.00
36828;BME280;22766;48.042;11.192;2023-04-27T00:15:55;95025.69;;;4.83;100.00
36828;BME280;22766;48.042;11.192;2023-04-27T00:18:22;95023.13;;;4.83;100.00
36828;BME280;22766;48.042;11.192;2023-04-27T00:20:49;95013.72;;;4.83;100.00
36828;BME280;22766;48.042;11.192;2023-04-27T00:23:16;95010.25;;;4.84;100.00
36828;BME280;22766;48.042;11.192;2023-04-27T00:25:42;95006.88;;;4.84;100.00
36828;BME280;22766;48.042;11.192;2023-04-27T00:28:09;95017.09;;;4.84;100.00
36828;BME280;22766;48.042;11.192;2023-04-27T00:30:36;95004.44;;;4.82;100.00
36828;BME280;22766;48.042;11.192;2023-04-27T00:33:03;95006.88;;;4.84;100.00
36828;BME280;22766;48.042;11.192;2023-04-27T00:35:31;95012.31;;;4.90;100.00
36828;BME280;22766;48.042;11.192;2023-04-27T00:37:58;95012.69;;;4.97;100.00
36828;BME280;22766;48.042;11.192;2023-04-27T00:40:25;95011.97;;;4.95;100.00
36828;BME280;22766;48.042;11.192;2023-04-27T00:42:52;95011.53;;;4.90;100.00
36828;BME280;22766;48.042;11.192;2023-04-27T00:45:18;95011.41;;;4.91;100.00
36828;BME280;22766;48.042;11.192;2023-04-27T00:47:45;95012.31;;;4.90;100.00
36828;BME280;22766;48.042;11.192;2023-04-27T00:50:13;95010.00;;;4.87;100.00
36828;BME280;22766;48.042;11.192;2023-04-27T00:52:40;95004.56;;;4.92;100.00
36828;BME280;22766;48.042;11.192;2023-04-27T00:55:07;95005.34;;;4.92;100.00
36828;BME280;22766;48.042;11.192;2023-04-27T00:57:35;95013.97;;;4.91;100.00
36828;BME280;22766;48.042;11.192;2023-04-27T01:00:02;95013.72;;;4.94;100.00
36828;BME280;22766;48.042;11.192;2023-04-27T01:02:33;95009.09;;;4.88;100.00
36828;BME280;22766;48.042;11.192;2023-04-27T01:05:01;95013.25;;;4.89;100.00
36828;BME280;22766;48.042;11.192;2023-04-27T01:07:28;95008.97;;;4.90;100.00
36828;BME280;22766;48.042;11.192;2023-04-27T01:09:56;95011.75;;;4.87;100.00
36828;BME280;22766;48.042;11.192;2023-04-27T01:12:23;95011.28;;;4.93;100.00
36828;BME280;22766;48.042;11.192;2023-04-27T01:14:49;95015.25;;;4.97;100.00
36828;BME280;22766;48.042;11.192;2023-04-27T01:17:16;95013.72;;;5.05;100.00
36828;BME280;22766;48.042;11.192;2023-04-27T01:19:43;95014.19;;;4.99;100.00
36828;BME280;22766;48.042;11.192;2023-04-27T01:22:10;95012.31;;;4.90;100.00
36828;BME280;22766;48.042;11.192;2023-04-27T01:24:37;95009.31;;;4.85;100.00
36828;BME280;22766;48.042;11.192;2023-04-27T01:27:04;95016.66;;;4.79;100.00
36828;BME280;22766;48.042;11.192;2023-04-27T01:29:31;95018.84;;;4.72;100.00
36828;BME280;22766;48.042;11.192;2023-04-27T01:31:58;95020.97;;;4.67;100.00
36828;BME280;22766;48.042;11.192;2023-04-27T01:34:25;95015.25;;;4.63;100.00
36828;BME280;22766;48.042;11.192;2023-04-27T01:36:51;95021.88;;;4.66;100.00
36828;BME280;22766;48.042;11.192;2023-04-27T01:39:20;95016.06;;;4.64;100.00
36828;BME280;22766;48.042;11.192;2023-04-27T01:41:47;95015.25;;;4.52;100.00
36828;BME280;22766;48.042;11.192;2023-04-27T01:44:13;95017.78;;;4.41;100.00
36828;BME280;22766;48.042;11.192;2023-04-27T01:46:40;95005.72;;;4.43;100.00
36828;BME280;22766;48.042;11.192;2023-04-27T01:49:07;95008.28;;;4.43;100.00
36828;BME280;22766;48.042;11.192;2023-04-27T01:51:34;95015.03;;;4.44;100.00
36828;BME280;22766;48.042;11.192;2023-04-27T01:54:01;95019.19;;;4.45;100.00
36828;BME280;22766;48.042;11.192;2023-04-27T01:56:28;95024.31;;;4.45;100.00
36828;BME280;22766;48.042;11.192;2023-04-27T01:58:54;95023.47;;;4.45;100.00
36828;BME280;22766;48.042;11.192;2023-04-27T02:01:21;95028.59;;;4.45;100.00
36828;BME280;22766;48.042;11.192;2023-04-27T02:03:48;95020.22;;;4.43;100.00
36828;BME280;22766;48.042;11.192;2023-04-27T02:06:15;95026.16;;;4.43;100.00
36828;BME280;22766;48.042;11.192;2023-04-27T02:08:42;95021.28;;;4.40;100.00
36828;BME280;22766;48.042;11.192;2023-04-27T02:11:08;95020.59;;;4.38;100.00
36828;BME280;22766;48.042;11.192;2023-04-27T02:13:35;95017.22;;;4.38;100.00
36828;BME280;22766;48.042;11.192;2023-04-27T02:16:02;95021.03;;;4.32;100.00
36828;BME280;22766;48.042;11.192;2023-04-27T02:18:31;95025.13;;;4.35;100.00
36828;BME280;22766;48.042;11.192;2023-04-27T02:20:59;95030.69;;;4.29;100.00
36828;BME280;22766;48.042;11.192;2023-04-27T02:23:26;95031.13;;;4.23;100.00
36828;BME280;22766;48.042;11.192;2023-04-27T02:25:52;95032.88;;;4.22;100.00
36828;BME280;22766;48.042;11.192;2023-04-27T02:28:19;95034.00;;;4.18;100.00
36828;BME280;22766;48.042;11.192;2023-04-27T02:30:46;95034.38;;;4.14;100.00
36828;BME280;22766;48.042;11.192;2023-04-27T02:33:13;95033.09;;;4.08;100.00
36828;BME280;22766;48.042;11.192;2023-04-27T02:35:40;95037.50;;;4.06;100.00
36828;BME280;22766;48.042;11.192;2023-04-27T02:38:06;95040.03;;;4.06;100.00
36828;BME280;22766;48.042;11.192;2023-04-27T02:40:36;95039.66;;;4.00;100.00
36828;BME280;22766;48.042;11.192;2023-04-27T02:43:04;95040.13;;;4.05;100.00
36828;BME280;22766;48.042;11.192;2023-04-27T02:45:35;95048.47;;;3.96;100.00
36828;BME280;22766;48.042;11.192;2023-04-27T02:48:04;95048.00;;;3.91;100.00
36828;BME280;22766;48.042;11.192;2023-04-27T02:50:32;95050.19;;;3.95;100.00
36828;BME280;22766;48.042;11.192;2023-04-27T02:52:59;95050.44;;;3.92;100.00
36828;BME280;22766;48.042;11.192;2023-04-27T02:55:26;95050.19;;;3.95;100.00
36828;BME280;22766;48.042;11.192;2023-04-27T02:57:53;95054.28;;;3.98;100.00
36828;BME280;22766;48.042;11.192;2023-04-27T03:00:20;95053.59;;;4.07;100.00
36828;BME280;22766;48.042;11.192;2023-04-27T03:02:46;95054.69;;;4.15;100.00
36828;BME280;22766;48.042;11.192;2023-04-27T03:05:13;95059.81;;;4.15;100.00
36828;BME280;22766;48.042;11.192;2023-04-27T03:07:40;95056.53;;;4.13;100.00
36828;BME280;22766;48.042;11.192;2023-04-27T03:10:08;95046.00;;;4.18;100.00
36828;BME280;22766;48.042;11.192;2023-04-27T03:12:34;95054.81;;;4.14;100.00
36828;BME280;22766;48.042;11.192;2023-04-27T03:15:01;95053.53;;;4.19;100.00
36828;BME280;22766;48.042;11.192;2023-04-27T03:17:28;95050.63;;;4.24;100.00
36828;BME280;22766;48.042;11.192;2023-04-27T03:19:55;95051.25;;;4.27;100.00
36828;BME280;22766;48.042;11.192;2023-04-27T03:22:22;95049.59;;;4.26;100.00
36828;BME280;22766;48.042;11.192;2023-04-27T03:24:49;95053.53;;;4.19;100.00
36828;BME280;22766;48.042;11.192;2023-04-27T03:27:16;95052.72;;;4.19;100.00
36828;BME280;22766;48.042;11.192;2023-04-27T03:29:42;95053.53;;;4.19;100.00
36828;BME280;22766;48.042;11.192;2023-04-27T03:32:10;95047.72;;;4.17;100.00
36828;BME280;22766;48.042;11.192;2023-04-27T03:34:37;95040.63;;;4.10;100.00
36828;BME280;22766;48.042;11.192;2023-04-27T03:37:04;95047.91;;;4.03;100.00
36828;BME280;22766;48.042;11.192;2023-04-27T03:39:35;95048.56;;;3.83;100.00
36828;BME280;22766;48.042;11.192;2023-04-27T03:42:02;95060.81;;;3.78;100.00
36828;BME280;22766;48.042;11.192;2023-04-27T03:44:29;95064.19;;;3.78;100.00
36828;BME280;22766;48.042;11.192;2023-04-27T03:47:00;95061.44;;;3.82;100.00
36828;BME280;22766;48.042;11.192;2023-04-27T03:49:27;95065.41;;;3.86;100.00
36828;BME280;22766;48.042;11.192;2023-04-27T03:51:54;95066.78;;;3.90;100.00
36828;BME280;22766;48.042;11.192;2023-04-27T03:54:21;95066.34;;;3.96;100.00
36828;BME280;22766;48.042;11.192;2023-04-27T03:56:48;95073.19;;;3.95;100.00
36828;BME280;22766;48.042;11.192;2023-04-27T03:59:15;95073.81;;;3.99;100.00
36828;BME280;22766;48.042;11.192;2023-04-27T04:01:47;95068.00;;;3.97;100.00
36828;BME280;22766;48.042;11.192;2023-04-27T04:04:14;95075.84;;;3.94;100.00
36828;BME280;22766;48.042;11.192;2023-04-27T04:06:41;95081.53;;;3.86;100.00
36828;BME280;22766;48.042;11.192;2023-04-27T04:09:10;95083.31;;;3.73;100.00
36828;BME280;22766;48.042;11.192;2023-04-27T04:11:38;95087.25;;;3.66;100.00
36828;BME280;22766;48.042;11.192;2023-04-27T04:14:07;95084.19;;;3.61;100.00
36828;BME280;22766;48.042;11.192;2023-04-27T04:16:34;95077.56;;;3.58;100.00
36828;BME280;22766;48.042;11.192;2023-04-27T04:19:01;95093.09;;;3.55;100.00
36828;BME280;22766;48.042;11.192;2023-04-27T04:21:28;95095.97;;;3.51;100.00
36828;BME280;22766;48.042;11.192;2023-04-27T04:23:54;95100.38;;;3.49;100.00
36828;BME280;22766;48.042;11.192;2023-04-27T04:26:21;95107.91;;;3.50;100.00
36828;BME280;22766;48.042;11.192;2023-04-27T04:28:49;95107.31;;;3.47;100.00
36828;BME280;22766;48.042;11.192;2023-04-27T04:31:15;95112.91;;;3.52;100.00
36828;BME280;22766;48.042;11.192;2023-04-27T04:33:43;95106.56;;;3.57;100.00
36828;BME280;22766;48.042;11.192;2023-04-27T04:36:10;95108.81;;;3.62;100.00
36828;BME280;22766;48.042;11.192;2023-04-27T04:38:37;95101.78;;;3.53;100.00
36828;BME280;22766;48.042;11.192;2023-04-27T04:41:03;95113.31;;;3.58;100.00
36828;BME280;22766;48.042;11.192;2023-04-27T04:43:32;95123.28;;;3.61;100.00
36828;BME280;22766;48.042;11.192;2023-04-27T04:46:02;95118.00;;;3.64;100.00
36828;BME280;22766;48.042;11.192;2023-04-27T04:48:28;95123.25;;;3.74;100.00
36828;BME280;22766;48.042;11.192;2023-04-27T04:50:55;95118.22;;;3.85;100.00
36828;BME280;22766;48.042;11.192;2023-04-27T04:53:24;95123.59;;;3.93;100.00
36828;BME280;22766;48.042;11.192;2023-04-27T04:55:54;95119.31;;;4.05;100.00
36828;BME280;22766;48.042;11.192;2023-04-27T04:58:21;95123.66;;;4.15;100.00
36828;BME280;22766;48.042;11.192;2023-04-27T05:00:47;95118.25;;;4.20;100.00
36828;BME280;22766;48.042;11.192;2023-04-27T05:03:18;95123.97;;;4.34;100.00
36828;BME280;22766;48.042;11.192;2023-04-27T05:05:46;95129.19;;;4.33;100.00
36828;BME280;22766;48.042;11.192;2023-04-27T05:08:13;95127.81;;;4.40;100.00
36828;BME280;22766;48.042;11.192;2023-04-27T05:10:40;95126.31;;;4.48;100.00
36828;BME280;22766;48.042;11.192;2023-04-27T05:13:07;95140.19;;;4.57;100.00
36828;BME280;22766;48.042;11.192;2023-04-27T05:15:36;95133.81;;;4.62;100.00
36828;BME280;22766;48.042;11.192;2023-04-27T05:18:02;95131.38;;;4.72;100.00
36828;BME280;22766;48.042;11.192;2023-04-27T05:20:29;95126.16;;;4.85;100.00
36828;BME280;22766;48.042;11.192;2023-04-27T05:22:55;95126.75;;;4.88;100.00
36828;BME280;22766;48.042;11.192;2023-04-27T05:25:22;95130.13;;;4.89;100.00
36828;BME280;22766;48.042;11.192;2023-04-27T05:27:49;95132.59;;;5.01;100.00
36828;BME280;22766;48.042;11.192;2023-04-27T05:30:15;95131.44;;;5.05;100.00
36828;BME280;22766;48.042;11.192;2023-04-27T05:32:42;95135.59;;;5.17;100.00
36828;BME280;22766;48.042;11.192;2023-04-27T05:35:09;95138.16;;;5.28;100.00
36828;BME280;22766;48.042;11.192;2023-04-27T05:37:36;95139.91;;;5.39;100.00
36828;BME280;22766;48.042;11.192;2023-04-27T05:40:02;95135.59;;;5.50;100.00
36828;BME280;22766;48.042;11.192;2023-04-27T05:42:31;95146.97;;;5.57;100.00
36828;BME280;22766;48.042;11.192;2023-04-27T05:44:58;95132.19;;;5.61;100.00
36828;BME280;22766;48.042;11.192;2023-04-27T05:47:25;95137.19;;;5.62;100.00
36828;BME280;22766;48.042;11.192;2023-04-27T05:49:51;95135.53;;;5.72;100.00
36828;BME280;22766;48.042;11.192;2023-04-27T05:52:19;95136.59;;;5.70;100.00
36828;BME280;22766;48.042;11.192;2023-04-27T05:54:47;95139.94;;;5.82;100.00
36828;BME280;22766;48.042;11.192;2023-04-27T05:57:14;95140.75;;;5.93;100.00
36828;BME280;22766;48.042;11.192;2023-04-27T05:59:41;95138.66;;;5.98;100.00
36828;BME280;22766;48.042;11.192;2023-04-27T06:02:08;95144.72;;;5.97;100.00
36828;BME280;22766;48.042;11.192;2023-04-27T06:04:35;95141.59;;;5.94;100.00
36828;BME280;22766;48.042;11.192;2023-04-27T06:07:12;95148.44;;;5.93;100.00
36828;BME280;22766;48.042;11.192;2023-04-27T06:09:41;95152.75;;;5.93;100.00
36828;BME280;22766;48.042;11.192;2023-04-27T06:12:08;95143.09;;;5.96;100.00
36828;BME280;22766;48.042;11.192;2023-04-27T06:14:36;95146.66;;;6.05;100.00
36828;BME280;22766;48.042;11.192;2023-04-27T06:17:03;95144.81;;;6.07;100.00
36828;BME280;22766;48.042;11.192;2023-04-27T06:19:30;95146.75;;;6.14;100.00
36828;BME280;22766;48.042;11.192;2023-04-27T06:21:57;95152.66;;;6.26;100.00
36828;BME280;22766;48.042;11.192;2023-04-27T06:24:23;95148.78;;;6.31;100.00
36828;BME280;22766;48.042;11.192;2023-04-27T06:26:50;95144.00;;;6.38;100.00
36828;BME280;22766;48.042;11.192;2023-04-27T06:29:17;95151.31;;;6.42;100.00
36828;BME280;22766;48.042;11.192;2023-04-27T06:31:43;95153.50;;;6.47;100.00
36828;BME280;22766;48.042;11.192;2023-04-27T06:34:10;95154.88;;;6.51;100.00
36828;BME280;22766;48.042;11.192;2023-04-27T06:36:37;95157.25;;;6.63;100.00
36828;BME280;22766;48.042;11.192;2023-04-27T06:39:03;95153.44;;;6.79;100.00
36828;BME280;22766;48.042;11.192;2023-04-27T06:41:30;95158.97;;;6.95;100.00
36828;BME280;22766;48.042;11.192;2023-04-27T06:43:57;95153.19;;;7.02;100.00
36828;BME280;22766;48.042;11.192;2023-04-27T06:46:24;95160.31;;;7.19;100.00
36828;BME280;22766;48.042;11.192;2023-04-27T06:48:51;95156.59;;;7.33;100.00
36828;BME280;22766;48.042;11.192;2023-04-27T06:51:18;95159.88;;;7.44;100.00
36828;BME280;22766;48.042;11.192;2023-04-27T06:53:45;95160.31;;;7.49;100.00
36828;BME280;22766;48.042;11.192;2023-04-27T06:56:11;95160.91;;;7.72;100.00
36828;BME280;22766;48.042;11.192;2023-04-27T06:58:38;95162.69;;;7.81;100.00
36828;BME280;22766;48.042;11.192;2023-04-27T07:01:04;95171.66;;;7.96;100.00
36828;BME280;22766;48.042;11.192;2023-04-27T07:03:34;95171.97;;;8.03;100.00
36828;BME280;22766;48.042;11.192;2023-04-27T07:06:01;95169.66;;;8.09;100.00
36828;BME280;22766;48.042;11.192;2023-04-27T07:08:28;95168.19;;;8.16;100.00
36828;BME280;22766;48.042;11.192;2023-04-27T07:10:54;95162.81;;;8.38;100.00
36828;BME280;22766;48.042;11.192;2023-04-27T07:13:21;95169.19;;;8.34;100.00
36828;BME280;22766;48.042;11.192;2023-04-27T07:15:56;95175.16;;;8.44;100.00
36828;BME280;22766;48.042;11.192;2023-04-27T07:18:23;95166.75;;;8.52;100.00
36828;BME280;22766;48.042;11.192;2023-04-27T07:20:51;95170.16;;;8.72;100.00
36828;BME280;22766;48.042;11.192;2023-04-27T07:23:17;95165.22;;;8.88;100.00
36828;BME280;22766;48.042;11.192;2023-04-27T07:25:44;95162.94;;;8.94;100.00
36828;BME280;22766;48.042;11.192;2023-04-27T07:28:11;95169.72;;;8.76;100.00
36828;BME280;22766;48.042;11.192;2023-04-27T07:30:38;95167.94;;;8.96;100.00
36828;BME280;22766;48.042;11.192;2023-04-27T07:33:06;95167.47;;;9.10;100.00
36828;BME280;22766;48.042;11.192;2023-04-27T07:35:33;95167.75;;;9.16;100.00
36828;BME280;22766;48.042;11.192;2023-04-27T07:38:00;95170.44;;;9.24;100.00
36828;BME280;22766;48.042;11.192;2023-04-27T07:40:29;95167.56;;;9.37;100.00
36828;BME280;22766;48.042;11.192;2023-04-27T07:42:58;95164.00;;;9.48;100.00
36828;BME280;22766;48.042;11.192;2023-04-27T07:45:25;95169.56;;;9.43;100.00
36828;BME280;22766;48.042;11.192;2023-04-27T07:47:59;95168.66;;;9.71;100.00
36828;BME280;22766;48.042;11.192;2023-04-27T07:50:28;95163.16;;;9.84;100.00
36828;BME280;22766;48.042;11.192;2023-04-27T07:52:55;95170.50;;;9.79;100.00
36828;BME280;22766;48.042;11.192;2023-04-27T07:55:23;95165.81;;;9.92;100.00
36828;BME280;22766;48.042;11.192;2023-04-27T07:57:53;95166.25;;;10.14;100.00
36828;BME280;22766;48.042;11.192;2023-04-27T08:00:21;95166.69;;;10.37;100.00
36828;BME280;22766;48.042;11.192;2023-04-27T08:02:49;95172.72;;;10.46;100.00
36828;BME280;22766;48.042;11.192;2023-04-27T08:05:16;95173.94;;;10.24;100.00
36828;BME280;22766;48.042;11.192;2023-04-27T08:07:44;95173.16;;;10.41;100.00
36828;BME280;22766;48.042;11.192;2023-04-27T08:10:13;95178.97;;;10.96;100.00
36828;BME280;22766;48.042;11.192;2023-04-27T08:12:39;95179.31;;;11.01;100.00
36828;BME280;22766;48.042;11.192;2023-04-27T08:15:07;95186.66;;;11.13;100.00
36828;BME280;22766;48.042;11.192;2023-04-27T08:17:33;95182.31;;;11.14;100.00
36828;BME280;22766;48.042;11.192;2023-04-27T08:20:02;95180.19;;;11.09;100.00
36828;BME280;22766;48.042;11.192;2023-04-27T08:22:28;95175.06;;;10.92;100.00
36828;BME280;22766;48.042;11.192;2023-04-27T08:24:55;95183.91;;;10.89;100.00
36828;BME280;22766;48.042;11.192;2023-04-27T08:27:22;95183.41;;;10.86;100.00
36828;BME280;22766;48.042;11.192;2023-04-27T08:29:48;95179.88;;;11.30;100.00
36828;BME280;22766;48.042;11.192;2023-04-27T08:32:15;95176.81;;;11.60;100.00
36828;BME280;22766;48.042;11.192;2023-04-27T08:34:42;95182.13;;;11.84;100.00
36828;BME280;22766;48.042;11.192;2023-04-27T08:37:10;95170.53;;;11.96;98.89
36828;BME280;22766;48.042;11.192;2023-04-27T08:39:37;95176.63;;;11.87;100.00
36828;BME280;22766;48.042;11.192;2023-04-27T08:42:11;95173.09;;;12.38;89.69
36828;BME280;22766;48.042;11.192;2023-04-27T08:44:42;95176.84;;;12.52;91.59
36828;BME280;22766;48.042;11.192;2023-04-27T08:47:10;95179.56;;;12.58;100.00
36828;BME280;22766;48.042;11.192;2023-04-27T08:49:37;95182.03;;;12.92;100.00
36828;BME280;22766;48.042;11.192;2023-04-27T08:52:13;95175.75;;;13.10;92.55
36828;BME280;22766;48.042;11.192;2023-04-27T08:54:40;95173.25;;;12.53;94.11
36828;BME280;22766;48.042;11.192;2023-04-27T08:57:12;95175.88;;;12.93;95.05
36828;BME280;22766;48.042;11.192;2023-04-27T08:59:39;95178.66;;;13.24;87.10
36828;BME280;22766;48.042;11.192;2023-04-27T09:02:17;95171.13;;;13.61;91.75
36828;BME280;22766;48.042;11.192;2023-04-27T09:04:44;95171.91;;;14.16;89.68
36828;BME280;22766;48.042;11.192;2023-04-27T09:07:15;95175.59;;;14.22;86.14
36828;BME280;22766;48.042;11.192;2023-04-27T09:09:44;95167.69;;;13.76;76.87
36828;BME280;22766;48.042;11.192;2023-04-27T09:12:21;95174.13;;;13.88;80.91
36828;BME280;22766;48.042;11.192;2023-04-27T09:15:00;95162.22;;;14.41;81.82
36828;BME280;22766;48.042;11.192;2023-04-27T09:17:32;95168.88;;;15.11;80.30
36828;BME280;22766;48.042;11.192;2023-04-27T09:20:07;95167.50;;;15.01;73.01
36828;BME280;22766;48.042;11.192;2023-04-27T09:22:45;95161.78;;;15.05;73.36
36828;BME280;22766;48.042;11.192;2023-04-27T09:25:30;95160.19;;;14.28;61.08
36828;BME280;22766;48.042;11.192;2023-04-27T09:27:58;95160.16;;;15.04;60.27
36828;BME280;22766;48.042;11.192;2023-04-27T09:30:26;95162.19;;;15.31;60.20
36828;BME280;22766;48.042;11.192;2023-04-27T09:32:58;95160.22;;;15.33;63.31
36828;BME280;22766;48.042;11.192;2023-04-27T09:35:29;95155.16;;;15.54;65.07
36828;BME280;22766;48.042;11.192;2023-04-27T09:37:58;95155.66;;;16.23;58.36
36828;BME280;22766;48.042;11.192;2023-04-27T09:40:26;95150.31;;;15.66;53.92
36828;BME280;22766;48.042;11.192;2023-04-27T09:42:58;95155.78;;;15.56;52.20
36828;BME280;22766;48.042;11.192;2023-04-27T09:45:27;95151.25;;;15.36;52.96
36828;BME280;22766;48.042;11.192;2023-04-27T09:47:54;95154.59;;;15.07;49.38
36828;BME280;22766;48.042;11.192;2023-04-27T09:50:20;95152.47;;;14.88;50.93
36828;BME280;22766;48.042;11.192;2023-04-27T09:52:47;95152.97;;;14.38;50.59
36828;BME280;22766;48.042;11.192;2023-04-27T09:55:33;95148.38;;;14.48;55.49
36828;BME280;22766;48.042;11.192;2023-04-27T09:58:31;95146.94;;;14.46;49.55
36828;BME280;22766;48.042;11.192;2023-04-27T10:09:23;95134.44;;;15.24;49.70
36828;BME280;22766;48.042;11.192;2023-04-27T10:11:51;95140.88;;;14.76;49.81
36828;BME280;22766;48.042;11.192;2023-04-27T10:14:21;95131.41;;;14.38;49.66
36828;BME280;22766;48.042;11.192;2023-04-27T10:19:18;95129.38;;;14.70;50.25
36828;BME280;22766;48.042;11.192;2023-04-27T10:21:54;95125.00;;;14.71;52.07
36828;BME280;22766;48.042;11.192;2023-04-27T10:24:38;95119.50;;;14.88;53.40
36828;BME280;22766;48.042;11.192;2023-04-27T10:27:06;95121.31;;;15.02;48.66
36828;BME280;22766;48.042;11.192;2023-04-27T10:29:49;95129.16;;;14.57;50.67
36828;BME280;22766;48.042;11.192;2023-04-27T10:37:09;95117.25;;;15.37;47.28
36828;BME280;22766;48.042;11.192;2023-04-27T10:39:38;95124.56;;;15.56;46.71
36828;BME280;22766;48.042;11.192;2023-04-27T10:42:28;95124.59;;;15.34;48.47
36828;BME280;22766;48.042;11.192;2023-04-27T10:44:58;95126.75;;;15.16;47.75
36828;BME280;22766;48.042;11.192;2023-04-27T10:47:36;95124.41;;;15.06;49.22
36828;BME280;22766;48.042;11.192;2023-04-27T10:50:04;95125.44;;;14.74;50.76
36828;BME280;22766;48.042;11.192;2023-04-27T10:52:31;95128.31;;;14.34;52.36
36828;BME280;22766;48.042;11.192;2023-04-27T10:55:11;95122.34;;;14.34;50.67
36828;BME280;22766;48.042;11.192;2023-04-27T10:57:54;95123.47;;;14.00;54.15
36828;BME280;22766;48.042;11.192;2023-04-27T11:00:22;95129.28;;;14.02;54.88
36828;BME280;22766;48.042;11.192;2023-04-27T11:02:52;95128.22;;;14.20;52.30
36828;BME280;22766;48.042;11.192;2023-04-27T11:05:22;95122.81;;;14.60;51.73
36828;BME280;22766;48.042;11.192;2023-04-27T11:07:50;95126.00;;;14.47;52.28
36828;BME280;22766;48.042;11.192;2023-04-27T11:10:18;95121.00;;;14.83;50.74
36828;BME280;22766;48.042;11.192;2023-04-27T11:12:45;95127.13;;;14.90;51.18
36828;BME280;22766;48.042;11.192;2023-04-27T11:15:12;95128.50;;;14.25;53.98
36828;BME280;22766;48.042;11.192;2023-04-27T11:17:39;95120.75;;;13.94;55.03
36828;BME280;22766;48.042;11.192;2023-04-27T11:20:07;95131.19;;;13.78;56.95
36828;BME280;22766;48.042;11.192;2023-04-27T11:22:43;95126.44;;;13.89;58.36
36828;BME280;22766;48.042;11.192;2023-04-27T11:25:11;95130.28;;;14.01;57.30
36828;BME280;22766;48.042;11.192;2023-04-27T11:27:39;95129.13;;;14.04;57.85
36828;BME280;22766;48.042;11.192;2023-04-27T11:30:18;95140.13;;;14.06;65.97
36828;BME280;22766;48.042;11.192;2023-04-27T11:32:47;95137.78;;;14.19;64.53
36828;BME280;22766;48.042;11.192;2023-04-27T11:35:14;95134.56;;;14.17;64.20
36828;BME280;22766;48.042;11.192;2023-04-27T11:37:41;95139.13;;;14.46;61.54
36828;BME280;22766;48.042;11.192;2023-04-27T11:40:08;95136.41;;;15.22;54.22
36828;BME280;22766;48.042;11.192;2023-04-27T11:42:36;95137.56;;;15.05;56.15
36828;BME280;22766;48.042;11.192;2023-04-27T11:45:04;95137.03;;;15.46;52.56
36828;BME280;22766;48.042;11.192;2023-04-27T11:47:32;95132.16;;;15.29;52.46
36828;BME280;22766;48.042;11.192;2023-04-27T11:50:04;95134.44;;;15.75;50.25
36828;BME280;22766;48.042;11.192;2023-04-27T11:55:00;95137.47;;;16.08;48.87
36828;BME280;22766;48.042;11.192;2023-04-27T11:57:29;95148.16;;;15.55;50.03
36828;BME280;22766;48.042;11.192;2023-04-27T11:59:57;95138.06;;;15.37;51.14
36828;BME280;22766;48.042;11.192;2023-04-27T12:02:39;95142.53;;;14.91;54.17
36828;BME280;22766;48.042;11.192;2023-04-27T12:05:06;95145.25;;;14.98;57.58
36828;BME280;22766;48.042;11.192;2023-04-27T12:07:34;95143.59;;;14.82;59.36
36828;BME280;22766;48.042;11.192;2023-04-27T12:10:01;95136.94;;;14.57;58.91
36828;BME280;22766;48.042;11.192;2023-04-27T12:12:28;95143.56;;;15.05;59.02
36828;BME280;22766;48.042;11.192;2023-04-27T12:14:54;95139.78;;;15.30;52.51
36828;BME280;22766;48.042;11.192;2023-04-27T12:17:21;95137.22;;;15.88;54.81
36828;BME280;22766;48.042;11.192;2023-04-27T12:19:48;95142.00;;;16.71;46.56
36828;BME280;22766;48.042;11.192;2023-04-27T12:22:15;95136.66;;;17.83;46.76
36828;BME280;22766;48.042;11.192;2023-04-27T12:24:42;95134.84;;;19.04;46.87
36828;BME280;22766;48.042;11.192;2023-04-27T12:27:08;95136.44;;;19.71;43.50
36828;BME280;22766;48.042;11.192;2023-04-27T12:29:35;95136.66;;;19.69;40.10
36828;BME280;22766;48.042;11.192;2023-04-27T12:32:03;95137.00;;;19.92;37.00
36828;BME280;22766;48.042;11.192;2023-04-27T12:34:29;95131.41;;;19.69;37.47
36828;BME280;22766;48.042;11.192;2023-04-27T12:36:57;95135.19;;;18.69;41.26
36828;BME280;22766;48.042;11.192;2023-04-27T12:39:23;95136.63;;;19.82;42.31
36828;BME280;22766;48.042;11.192;2023-04-27T12:41:51;95131.53;;;20.58;38.19
36828;BME280;22766;48.042;11.192;2023-04-27T12:44:19;95134.25;;;19.48;38.41
36828;BME280;22766;48.042;11.192;2023-04-27T12:46:46;95128.59;;;18.99;39.98
36828;BME280;22766;48.042;11.192;2023-04-27T12:49:16;95132.00;;;18.93;40.20
36828;BME280;22766;48.042;11.192;2023-04-27T12:51:43;95133.47;;;19.54;37.17
36828;BME280;22766;48.042;11.192;2023-04-27T12:54:11;95124.75;;;18.69;39.50
36828;BME280;22766;48.042;11.192;2023-04-27T12:56:38;95130.47;;;17.56;42.12
36828;BME280;22766;48.042;11.192;2023-04-27T12:59:05;95125.38;;;17.21;43.14
36828;BME280;22766;48.042;11.192;2023-04-27T13:01:32;95126.91;;;16.88;44.35
36828;BME280;22766;48.042;11.192;2023-04-27T13:04:00;95127.16;;;16.50;47.14
36828;BME280;22766;48.042;11.192;2023-04-27T13:06:29;95125.88;;;16.46;48.13
36828;BME280;22766;48.042;11.192;2023-04-27T13:08:57;95125.84;;;17.03;48.63
36828;BME280;22766;48.042;11.192;2023-04-27T13:11:24;95127.13;;;18.57;41.41
36828;BME280;22766;48.042;11.192;2023-04-27T13:13:51;95117.34;;;19.31;41.59